Impacts METAR Board
IDs:

KMIA - Miami Intl, FL, US

Updated at: 1900 UTC 17 Jul 2018
Potential Impact None Slight Moderate High
Time 17/07Z 17/08Z 17/09Z 17/10Z 17/11Z 17/12Z 17/13Z 17/14Z 17/15Z 17/16Z 17/17Z 17/18Z 17/19Z
Temp81 81 80 80 81 83 84 86 88 88 90 90 91
Dewpt76 76 76 75 75 76 76 76 75 75 76 75 77
Altim30.09 30.09 30.08 30.09 30.10 30.11 30.14 30.13 30.13 30.12 30.11 30.10 30.08
VIS10 10 10 10 10 10 10 10 10 10 10 10 10
CIG-- -- -- -- -- -- 250 250 250 250 250 250 250
CoverSCTSCTSCTSCTSCTSCTBKNBKNBKNBKNBKNBKNBKN
FltCatVFRVFRVFRVFRVFRVFRVFRVFRVFRVFRVFRVFRVFR
WX--------------------------
WDir220000001700140130150140120
WSpd3 0 0 0 0 0 3 4 5 8 5 10 11
WGst-- -- -- -- -- -- -- -- -- -- -- 16 17
Raw hourly METARs
KMIA 170653Z 22003KT 10SM FEW030 SCT250 27/24 A3009 RMK AO2 SLP190 T02720244 $
KMIA 170753Z 00000KT 10SM FEW025 SCT250 27/24 A3009 RMK AO2 SLP188 T02720244 $
KMIA 170853Z 00000KT 10SM FEW025 SCT250 27/24 A3008 RMK AO2 SLP187 T02670244 58004 $
KMIA 170953Z 00000KT 10SM FEW023 SCT250 27/24 A3009 RMK AO2 SLP188 CB DSNT E-SE T02670239 $
KMIA 171053Z 00000KT 10SM FEW023 SCT250 27/24 A3010 RMK AO2 SLP194 T02720239 $
KMIA 171153Z 00000KT 10SM FEW020 SCT250 28/24 A3011 RMK AO2 SLP195 T02830244 10283 20261 51007 $
KMIA 171253Z 17003KT 10SM FEW025 BKN250 29/24 A3014 RMK AO2 SLP205 CB DSNT NE-SE AND SW-W MOV N T02890244
KMIA 171353Z VRB04KT 10SM FEW026 BKN250 30/24 A3013 RMK AO2 SLP203 T03000244
KMIA 171453Z 14005KT 10SM FEW030 BKN250 31/24 A3013 RMK AO2 SLP202 T03110239 50007
KMIA 171553Z 13008KT 10SM FEW032 BKN250 31/24 A3012 RMK AO2 SLP201 T03110239
KMIA 171653Z 15005KT 10SM SCT030 BKN250 32/24 A3011 RMK AO2 SLP195 T03220244
KMIA 171753Z 14010G16KT 10SM FEW032 SCT044 BKN250 32/24 A3010 RMK AO2 SLP191 TCU DSNT N AND SW-W T03220239 10328 20283 58011
KMIA 171853Z 12011G17KT 10SM SCT032 SCT044 BKN250 33/25 A3008 RMK AO2 LTG DSNT SW TSE31 SLP186 CB DSNT SW-NW-N MOV N T03280250



Page loaded:  19:31 UTC  |   12:31 PM Pacific  |   01:31 PM Mountain  |   02:31 PM Central  |   03:31 PM Eastern

 

ADVISORIES

FORECASTS

FORECASTS

OBSERVATIONS

USER TOOLS

ABOUT US